createdAt,value
2018-08-19T00:00:32.484Z,16.51
2018-08-19T00:01:32.543Z,16.36
2018-08-19T00:02:32.602Z,16.41
2018-08-19T00:03:32.662Z,16.44
2018-08-19T00:04:32.721Z,16.40
2018-08-19T00:05:32.781Z,16.41
2018-08-19T00:06:32.843Z,16.32
2018-08-19T00:07:32.902Z,16.33
2018-08-19T00:08:32.959Z,16.40
2018-08-19T00:09:33.019Z,16.34
2018-08-19T00:10:33.078Z,16.37
2018-08-19T00:11:33.138Z,16.25
2018-08-19T00:12:33.205Z,16.23
2018-08-19T00:13:33.257Z,16.18
2018-08-19T00:14:33.315Z,16.27
2018-08-19T00:15:33.374Z,16.26
2018-08-19T00:16:33.436Z,16.25
2018-08-19T00:17:33.495Z,16.16
2018-08-19T00:18:33.552Z,16.23
2018-08-19T00:19:33.612Z,16.23
2018-08-19T00:20:33.674Z,16.22
2018-08-19T00:21:33.731Z,16.16
2018-08-19T00:22:33.791Z,16.16
2018-08-19T00:23:33.850Z,16.16
2018-08-19T00:24:33.909Z,16.22
2018-08-19T00:25:33.970Z,16.27
2018-08-19T00:26:34.027Z,16.22
2018-08-19T00:27:34.088Z,16.04
2018-08-19T00:28:34.147Z,16.04
2018-08-19T00:29:34.207Z,15.95
2018-08-19T00:30:34.264Z,15.98
2018-08-19T00:31:34.324Z,15.85
2018-08-19T00:32:34.384Z,15.93
2018-08-19T00:33:34.444Z,15.78
2018-08-19T00:34:34.503Z,15.89
2018-08-19T00:35:34.567Z,15.89
2018-08-19T00:36:34.622Z,15.96
2018-08-19T00:37:34.683Z,15.92
2018-08-19T00:38:34.739Z,15.85
2018-08-19T00:39:34.800Z,15.93
2018-08-19T00:40:34.858Z,15.93
2018-08-19T00:41:34.918Z,15.74
2018-08-19T00:42:34.977Z,15.81
2018-08-19T00:43:35.036Z,15.80
2018-08-19T00:44:35.101Z,15.80
2018-08-19T00:45:35.154Z,15.80
2018-08-19T00:46:35.215Z,15.81
2018-08-19T00:47:35.273Z,15.76
2018-08-19T00:48:35.583Z,15.77
2018-08-19T00:49:35.395Z,15.80
2018-08-19T00:50:35.450Z,15.76
2018-08-19T00:51:35.514Z,15.80
2018-08-19T00:52:35.571Z,15.73
2018-08-19T00:53:35.630Z,15.80
2018-08-19T00:54:35.687Z,15.71
2018-08-19T00:55:35.746Z,15.67
2018-08-19T00:56:35.806Z,15.68
2018-08-19T00:57:35.866Z,15.68
2018-08-19T00:58:35.925Z,15.67
2018-08-19T00:59:35.983Z,15.64
2018-08-19T01:00:36.043Z,15.74
2018-08-19T01:01:36.102Z,15.68
2018-08-19T01:02:36.161Z,15.66
2018-08-19T01:03:36.220Z,15.73
2018-08-19T01:04:36.281Z,15.49
2018-08-19T01:05:36.338Z,15.44
2018-08-19T01:06:36.398Z,15.43
2018-08-19T01:07:36.458Z,15.37
2018-08-19T01:08:36.767Z,15.48
2018-08-19T01:09:36.576Z,15.43
2018-08-19T01:10:36.633Z,15.58
2018-08-19T01:11:36.693Z,15.51
2018-08-19T01:12:36.753Z,15.51
2018-08-19T01:13:36.811Z,15.48
2018-08-19T01:14:36.870Z,15.48
2018-08-19T01:15:36.930Z,15.49
2018-08-19T01:16:36.990Z,15.56
2018-08-19T01:17:37.048Z,15.53
2018-08-19T01:18:37.106Z,15.49
2018-08-19T01:19:37.165Z,15.48
2018-08-19T01:20:37.227Z,15.49
2018-08-19T01:21:37.291Z,15.53
2018-08-19T01:22:37.344Z,15.55
2018-08-19T01:23:37.422Z,15.46
2018-08-19T01:24:37.461Z,15.40
2018-08-19T01:25:37.521Z,15.49
2018-08-19T01:26:37.578Z,15.43
2018-08-19T01:27:37.638Z,15.40
2018-08-19T01:28:37.699Z,15.48
2018-08-19T01:29:37.764Z,15.48
2018-08-19T01:30:37.815Z,15.44
2018-08-19T01:31:37.873Z,15.30
2018-08-19T01:32:37.934Z,15.31
2018-08-19T01:33:37.992Z,15.30
2018-08-19T01:34:38.052Z,15.23
2018-08-19T01:35:38.109Z,15.20
2018-08-19T01:36:38.169Z,15.19
2018-08-19T01:37:38.228Z,15.22
2018-08-19T01:38:38.286Z,15.23
2018-08-19T01:39:38.345Z,15.22
2018-08-19T01:40:38.404Z,15.25
2018-08-19T01:41:38.466Z,15.27
2018-08-19T01:42:38.522Z,15.25
2018-08-19T01:43:38.581Z,15.09
2018-08-19T01:44:38.891Z,15.11
2018-08-19T01:45:38.699Z,15.01
2018-08-19T01:46:38.757Z,15.05
2018-08-19T01:47:38.816Z,14.95
2018-08-19T01:48:38.875Z,14.95
2018-08-19T01:49:38.934Z,14.94
2018-08-19T01:50:38.991Z,14.98
2018-08-19T01:51:39.054Z,14.93
2018-08-19T01:52:39.111Z,14.90
2018-08-19T01:53:39.170Z,14.82
2018-08-19T01:54:39.228Z,14.85
2018-08-19T01:55:39.288Z,14.78
2018-08-19T01:56:39.346Z,14.79
2018-08-19T01:57:39.407Z,14.83
2018-08-19T01:58:39.467Z,14.74
2018-08-19T01:59:39.525Z,14.63
2018-08-19T02:00:39.582Z,14.79
2018-08-19T02:01:39.640Z,14.79
2018-08-19T02:02:39.698Z,14.78
2018-08-19T02:03:39.757Z,14.63
2018-08-19T02:04:39.816Z,14.67
2018-08-19T02:05:39.875Z,14.67
2018-08-19T02:06:39.933Z,14.72
2018-08-19T02:07:39.992Z,14.56
2018-08-19T02:08:40.050Z,14.54
2018-08-19T02:09:40.110Z,14.54
2018-08-19T02:10:40.168Z,14.52
2018-08-19T02:11:40.227Z,14.49
2018-08-19T02:12:40.286Z,14.49
2018-08-19T02:13:40.349Z,14.45
2018-08-19T02:14:40.406Z,14.59
2018-08-19T02:15:40.462Z,14.57
2018-08-19T02:16:40.520Z,14.56
2018-08-19T02:17:40.580Z,14.59
2018-08-19T02:18:40.637Z,14.61
2018-08-19T02:19:40.696Z,14.59
2018-08-19T02:20:40.807Z,14.54
2018-08-19T02:21:40.821Z,14.53
2018-08-19T02:22:40.872Z,14.48
2018-08-19T02:23:40.931Z,14.42
2018-08-19T02:24:41.010Z,14.48
2018-08-19T02:25:41.048Z,14.31
2018-08-19T02:26:41.107Z,14.41
2018-08-19T02:27:41.166Z,14.46
2018-08-19T02:28:41.224Z,14.36
2018-08-19T02:29:41.285Z,14.41
2018-08-19T02:30:41.341Z,14.41
2018-08-19T02:31:41.417Z,14.34
2018-08-19T02:32:41.459Z,14.26
2018-08-19T02:33:41.517Z,14.35
2018-08-19T02:34:41.575Z,14.29
2018-08-19T02:35:41.635Z,14.39
2018-08-19T02:36:41.693Z,14.41
2018-08-19T02:37:41.751Z,14.46
2018-08-19T02:38:41.809Z,14.53
2018-08-19T02:39:42.118Z,14.41
2018-08-19T02:40:41.926Z,14.36
2018-08-19T02:41:41.985Z,14.39
2018-08-19T02:42:42.043Z,14.38
2018-08-19T02:43:42.103Z,14.26
2018-08-19T02:44:42.160Z,14.19
2018-08-19T02:45:42.218Z,14.27
2018-08-19T02:46:42.278Z,14.24
2018-08-19T02:47:42.337Z,14.24
2018-08-19T02:48:42.395Z,14.20
2018-08-19T02:49:42.453Z,14.21
2018-08-19T02:50:42.512Z,14.24
2018-08-19T02:51:42.569Z,14.13
2018-08-19T02:52:42.627Z,14.21
2018-08-19T02:53:42.688Z,14.27
2018-08-19T02:54:42.744Z,14.19
2018-08-19T02:55:42.803Z,14.21
2018-08-19T02:56:42.866Z,14.20
2018-08-19T02:57:42.920Z,14.24
2018-08-19T02:58:42.979Z,14.06
2018-08-19T02:59:43.038Z,14.11
2018-08-19T03:00:43.095Z,14.08
2018-08-19T03:01:43.153Z,14.21
2018-08-19T03:02:43.211Z,14.17
2018-08-19T03:03:43.270Z,14.23
2018-08-19T03:04:43.329Z,14.17
2018-08-19T03:05:43.388Z,14.16
2018-08-19T03:06:43.445Z,14.08
2018-08-19T03:07:43.502Z,14.02
2018-08-19T03:08:43.562Z,14.11
2018-08-19T03:09:43.620Z,14.06
2018-08-19T03:10:43.677Z,14.06
2018-08-19T03:11:43.736Z,14.05
2018-08-19T03:12:43.796Z,14.02
2018-08-19T03:13:43.853Z,13.91
2018-08-19T03:14:43.909Z,13.91
2018-08-19T03:15:43.969Z,13.86
2018-08-19T03:16:44.028Z,13.87
2018-08-19T03:17:44.089Z,13.91
2018-08-19T03:18:44.144Z,13.90
2018-08-19T03:19:44.203Z,13.87
2018-08-19T03:20:44.261Z,13.88
2018-08-19T03:21:44.320Z,13.99
2018-08-19T03:22:44.377Z,13.98
2018-08-19T03:23:44.438Z,13.98
2018-08-19T03:24:44.496Z,13.88
2018-08-19T03:25:44.552Z,13.90
2018-08-19T03:26:44.609Z,13.88
2018-08-19T03:27:44.671Z,13.91
2018-08-19T03:28:44.730Z,13.99
2018-08-19T03:29:44.786Z,14.09
2018-08-19T03:30:44.844Z,14.21
2018-08-19T03:31:44.903Z,14.26
2018-08-19T03:32:44.961Z,14.13
2018-08-19T03:33:45.020Z,13.90
2018-08-19T03:34:45.077Z,13.90
2018-08-19T03:35:45.137Z,13.88
2018-08-19T03:36:45.198Z,13.90
2018-08-19T03:37:45.254Z,13.91
2018-08-19T03:38:45.310Z,13.88
2018-08-19T03:39:45.369Z,13.87
2018-08-19T03:40:45.427Z,13.90
2018-08-19T03:41:45.487Z,13.81
2018-08-19T03:42:45.548Z,13.81
2018-08-19T03:43:45.601Z,13.79
2018-08-19T03:44:45.661Z,13.80
2018-08-19T03:45:45.724Z,13.79
2018-08-19T03:46:45.776Z,13.88
2018-08-19T03:47:45.834Z,13.86
2018-08-19T03:48:45.893Z,13.88
2018-08-19T03:49:45.951Z,13.81
2018-08-19T03:50:46.009Z,13.69
2018-08-19T03:51:46.096Z,13.71
2018-08-19T03:52:46.143Z,13.72
2018-08-19T03:53:46.184Z,13.79
2018-08-19T03:54:46.268Z,13.72
2018-08-19T03:55:46.304Z,13.71
2018-08-19T03:56:46.381Z,13.73
2018-08-19T03:57:46.417Z,13.65
2018-08-19T03:58:46.494Z,13.63
2018-08-19T03:59:46.542Z,13.63
2018-08-19T04:00:46.608Z,13.57
2018-08-19T04:01:46.650Z,13.61
2018-08-19T04:02:46.708Z,13.63
2018-08-19T04:03:46.767Z,13.57
2018-08-19T04:04:46.825Z,13.59
2018-08-19T04:05:46.885Z,13.72
2018-08-19T04:06:46.941Z,13.62
2018-08-19T04:07:46.998Z,13.65
2018-08-19T04:08:47.057Z,13.71
2018-08-19T04:09:47.167Z,13.63
2018-08-19T04:10:47.173Z,13.59
2018-08-19T04:11:47.232Z,13.54
2018-08-19T04:12:47.290Z,13.50
2018-08-19T04:13:47.348Z,13.55
2018-08-19T04:14:47.407Z,13.66
2018-08-19T04:15:47.464Z,13.57
2018-08-19T04:16:47.523Z,13.61
2018-08-19T04:17:47.581Z,13.59
2018-08-19T04:18:47.639Z,13.59
2018-08-19T04:19:47.696Z,13.66
2018-08-19T04:20:47.755Z,13.69
2018-08-19T04:21:47.814Z,13.75
2018-08-19T04:22:47.871Z,13.73
2018-08-19T04:23:47.945Z,13.71
2018-08-19T04:24:47.988Z,13.75
2018-08-19T04:25:48.046Z,13.69
2018-08-19T04:26:48.103Z,13.65
2018-08-19T04:27:48.161Z,13.63
2018-08-19T04:28:48.223Z,13.63
2018-08-19T04:29:48.279Z,13.54
2018-08-19T04:30:48.337Z,13.63
2018-08-19T04:31:48.397Z,13.63
2018-08-19T04:32:48.452Z,13.65
2018-08-19T04:33:48.511Z,13.61
2018-08-19T04:34:48.604Z,13.55
2018-08-19T04:35:48.627Z,13.66
2018-08-19T04:36:48.836Z,13.54
2018-08-19T04:37:48.744Z,13.62
2018-08-19T04:38:48.802Z,13.62
2018-08-19T04:39:48.859Z,13.50
2018-08-19T04:40:48.918Z,13.50
2018-08-19T04:41:48.976Z,13.38
2018-08-19T04:42:49.032Z,13.39
2018-08-19T04:43:49.091Z,13.51
2018-08-19T04:44:49.151Z,13.59
2018-08-19T04:45:49.208Z,13.55
2018-08-19T04:46:49.268Z,13.55
2018-08-19T04:47:49.324Z,13.46
2018-08-19T04:48:49.396Z,13.50
2018-08-19T04:49:49.442Z,13.53
2018-08-19T04:50:49.498Z,13.59
2018-08-19T04:51:49.556Z,13.54
2018-08-19T04:52:49.614Z,13.51
2018-08-19T04:53:49.673Z,13.44
2018-08-19T04:54:49.730Z,13.46
2018-08-19T04:55:49.789Z,13.41
2018-08-19T04:56:49.855Z,13.46
2018-08-19T04:57:49.910Z,13.50
2018-08-19T04:58:49.965Z,13.51
2018-08-19T04:59:50.021Z,13.46
2018-08-19T05:00:50.082Z,13.55
2018-08-19T05:01:50.138Z,13.61
2018-08-19T05:02:50.448Z,13.59
2018-08-19T05:03:50.255Z,13.61
2018-08-19T05:04:50.312Z,13.48
2018-08-19T05:05:50.371Z,13.50
2018-08-19T05:06:50.428Z,13.54
2018-08-19T05:07:50.539Z,13.51
2018-08-19T05:08:50.545Z,13.39
2018-08-19T05:09:50.605Z,13.44
2018-08-19T05:10:50.662Z,13.36
2018-08-19T05:11:50.742Z,13.24
2018-08-19T05:12:50.782Z,13.28
2018-08-19T05:13:50.837Z,13.24
2018-08-19T05:14:50.894Z,13.24
2018-08-19T05:15:50.953Z,13.22
2018-08-19T05:16:51.011Z,13.25
2018-08-19T05:17:51.069Z,13.24
2018-08-19T05:18:51.127Z,13.44
2018-08-19T05:19:51.185Z,13.48
2018-08-19T05:20:51.245Z,13.65
2018-08-19T05:21:51.313Z,13.69
2018-08-19T05:22:51.610Z,13.71
2018-08-19T05:23:51.418Z,13.69
2018-08-19T05:24:51.476Z,13.65
2018-08-19T05:25:51.537Z,13.62
2018-08-19T05:26:51.592Z,13.61
2018-08-19T05:27:51.653Z,13.57
2018-08-19T05:28:51.710Z,13.53
2018-08-19T05:29:51.768Z,13.54
2018-08-19T05:30:51.840Z,13.61
2018-08-19T05:31:51.885Z,13.62
2018-08-19T05:32:51.943Z,13.63
2018-08-19T05:33:52.001Z,13.65
2018-08-19T05:34:52.102Z,13.68
2018-08-19T05:35:52.117Z,13.66
2018-08-19T05:36:52.177Z,13.65
2018-08-19T05:37:52.245Z,13.65
2018-08-19T05:38:52.291Z,13.62
2018-08-19T05:39:52.351Z,13.68
2018-08-19T05:40:52.408Z,13.80
2018-08-19T05:41:52.467Z,13.86
2018-08-19T05:42:52.524Z,13.87
2018-08-19T05:43:52.587Z,13.94
2018-08-19T05:44:52.642Z,13.91
2018-08-19T05:45:52.702Z,13.88
2018-08-19T05:46:52.761Z,14.01
2018-08-19T05:47:52.817Z,14.16
2018-08-19T05:48:52.875Z,14.23
2018-08-19T05:49:52.933Z,14.21
2018-08-19T05:50:52.992Z,14.38
2018-08-19T05:51:53.050Z,14.39
2018-08-19T05:52:53.109Z,14.35
2018-08-19T05:53:53.202Z,14.39
2018-08-19T05:54:53.227Z,14.44
2018-08-19T05:55:53.285Z,14.52
2018-08-19T05:56:53.343Z,14.45
2018-08-19T05:57:53.401Z,14.46
2018-08-19T05:58:53.459Z,14.44
2018-08-19T05:59:53.517Z,14.46
2018-08-19T06:00:53.576Z,14.59
2018-08-19T06:01:53.635Z,14.56
2018-08-19T06:02:53.693Z,14.61
2018-08-19T06:03:53.753Z,14.60
2018-08-19T06:04:53.811Z,14.60
2018-08-19T06:05:53.873Z,14.64
2018-08-19T06:06:53.928Z,14.57
2018-08-19T06:07:53.987Z,14.56
2018-08-19T06:08:54.045Z,14.67
2018-08-19T06:09:54.103Z,14.79
2018-08-19T06:10:54.160Z,14.74
2018-08-19T06:11:54.220Z,14.86
2018-08-19T06:12:54.280Z,15.00
2018-08-19T06:13:54.339Z,14.97
2018-08-19T06:14:54.397Z,14.93
2018-08-19T06:15:54.514Z,14.98
2018-08-19T06:16:54.516Z,14.98
2018-08-19T06:17:54.576Z,15.09
2018-08-19T06:18:54.633Z,15.12
2018-08-19T06:19:54.695Z,15.18
2018-08-19T06:20:54.751Z,15.22
2018-08-19T06:21:54.859Z,15.18
2018-08-19T06:22:54.869Z,15.31
2018-08-19T06:23:54.943Z,15.30
2018-08-19T06:24:54.987Z,15.37
2018-08-19T06:25:55.047Z,15.33
2018-08-19T06:26:55.109Z,15.48
2018-08-19T06:27:55.164Z,15.59
2018-08-19T06:28:55.479Z,15.60
2018-08-19T06:29:55.283Z,15.48
2018-08-19T06:30:55.383Z,15.51
2018-08-19T06:31:55.401Z,15.53
2018-08-19T06:32:55.460Z,15.73
2018-08-19T06:33:55.521Z,15.73
2018-08-19T06:34:55.700Z,15.68
2018-08-19T06:35:55.638Z,15.76
2018-08-19T06:36:55.696Z,15.76
2018-08-19T06:37:55.756Z,15.80
2018-08-19T06:38:55.814Z,15.91
2018-08-19T06:39:55.875Z,15.95
2018-08-19T06:40:55.936Z,15.81
2018-08-19T06:41:55.993Z,15.86
2018-08-19T06:42:56.054Z,15.95
2018-08-19T06:43:56.116Z,15.95
2018-08-19T06:44:56.173Z,16.06
2018-08-19T06:45:56.232Z,16.23
2018-08-19T06:46:56.292Z,16.27
2018-08-19T06:47:56.351Z,16.37
2018-08-19T06:48:56.562Z,16.33
2018-08-19T06:49:56.470Z,16.47
2018-08-19T06:50:56.552Z,16.47
2018-08-19T06:51:56.605Z,16.48
2018-08-19T06:52:56.657Z,16.52
2018-08-19T06:53:56.710Z,16.54
2018-08-19T06:54:56.774Z,16.60
2018-08-19T06:55:56.828Z,16.63
2018-08-19T06:56:56.888Z,16.70
2018-08-19T06:57:56.950Z,16.77
2018-08-19T06:58:57.026Z,16.73
2018-08-19T06:59:57.066Z,16.69
2018-08-19T07:00:57.129Z,16.80
2018-08-19T07:01:57.186Z,16.84
2018-08-19T07:02:57.245Z,16.84
2018-08-19T07:03:57.321Z,16.96
2018-08-19T07:04:57.366Z,16.90
2018-08-19T07:05:57.426Z,16.98
2018-08-19T07:06:57.485Z,17.07
2018-08-19T07:07:57.544Z,17.03
2018-08-19T07:08:57.605Z,17.10
2018-08-19T07:09:57.664Z,17.10
2018-08-19T07:10:57.724Z,17.17
2018-08-19T07:11:57.785Z,17.33
2018-08-19T07:12:57.845Z,17.30
2018-08-19T07:13:57.905Z,17.33
2018-08-19T07:14:57.964Z,17.42
2018-08-19T07:15:58.024Z,17.49
2018-08-19T07:16:58.085Z,17.55
2018-08-19T07:17:58.191Z,17.58
2018-08-19T07:18:58.205Z,17.62
2018-08-19T07:19:58.273Z,17.65
2018-08-19T07:20:58.324Z,17.80
2018-08-19T07:21:58.384Z,17.84
2018-08-19T07:22:58.445Z,17.79
2018-08-19T07:23:58.506Z,17.86
2018-08-19T07:24:58.566Z,17.86
2018-08-19T07:25:58.626Z,17.99
2018-08-19T07:26:58.685Z,18.10
2018-08-19T07:27:58.751Z,18.11
2018-08-19T07:28:58.810Z,18.13
2018-08-19T07:29:58.869Z,18.19
2018-08-19T07:30:58.928Z,18.17
2018-08-19T07:31:58.988Z,18.32
2018-08-19T07:32:59.048Z,18.31
2018-08-19T07:33:59.109Z,18.32
2018-08-19T07:34:59.171Z,18.34
2018-08-19T07:35:59.229Z,18.44
2018-08-19T07:36:59.409Z,18.51
2018-08-19T07:37:59.351Z,18.64
2018-08-19T07:38:59.411Z,18.60
2018-08-19T07:39:59.471Z,18.56
2018-08-19T07:40:59.533Z,18.69
2018-08-19T07:42:00.207Z,18.65
2018-08-19T07:42:59.654Z,18.71
2018-08-19T07:43:59.798Z,18.75
2018-08-19T07:44:59.774Z,18.76
2018-08-19T07:45:59.835Z,18.76
2018-08-19T07:46:59.896Z,18.86
2018-08-19T07:47:59.962Z,18.87
2018-08-19T07:49:00.018Z,18.99
2018-08-19T07:50:00.082Z,19.02
2018-08-19T07:51:00.139Z,19.15
2018-08-19T07:52:00.241Z,19.34
2018-08-19T07:53:00.263Z,19.28
2018-08-19T07:54:00.322Z,19.30
2018-08-19T07:55:00.382Z,19.32
2018-08-19T07:56:00.444Z,19.31
2018-08-19T07:57:00.504Z,19.38
2018-08-19T07:58:00.565Z,19.43
2018-08-19T07:59:53.093Z,19.58
2018-08-19T08:00:53.154Z,19.55
2018-08-19T08:01:53.215Z,19.60
2018-08-19T08:02:53.277Z,19.70
2018-08-19T08:03:53.348Z,19.72
2018-08-19T08:04:53.398Z,19.76
2018-08-19T08:05:53.460Z,19.89
2018-08-19T08:06:53.521Z,19.97
2018-08-19T08:07:53.588Z,20.00
2018-08-19T08:08:53.643Z,20.08
2018-08-19T08:09:53.705Z,20.19
2018-08-19T08:10:53.769Z,20.26
2018-08-19T08:11:53.828Z,20.31
2018-08-19T08:12:53.888Z,20.30
2018-08-19T08:13:54.047Z,20.31
2018-08-19T08:14:54.012Z,20.34
2018-08-19T08:15:54.074Z,20.38
2018-08-19T08:16:54.549Z,20.42
2018-08-19T08:17:54.247Z,20.35
2018-08-19T08:18:54.259Z,20.56
2018-08-19T08:19:54.320Z,20.50
2018-08-19T08:20:54.380Z,20.64
2018-08-19T08:21:54.467Z,20.68
2018-08-19T08:22:54.504Z,20.72
2018-08-19T08:23:54.566Z,20.78
2018-08-19T08:24:54.632Z,20.82
2018-08-19T08:25:54.690Z,20.90
2018-08-19T08:26:54.753Z,21.00
2018-08-19T08:27:54.814Z,21.09
2018-08-19T08:28:54.875Z,21.12
2018-08-19T08:29:54.938Z,21.16
2018-08-19T08:30:55.012Z,21.24
2018-08-19T08:31:55.066Z,21.38
2018-08-19T08:32:55.123Z,21.34
2018-08-19T08:33:55.184Z,21.40
2018-08-19T08:34:55.247Z,21.56
2018-08-19T08:35:55.311Z,21.59
2018-08-19T08:36:55.372Z,21.66
2018-08-19T08:37:55.433Z,21.68
2018-08-19T08:38:55.497Z,21.75
2018-08-19T08:39:55.558Z,21.99
2018-08-19T08:40:55.621Z,22.08
2018-08-19T08:41:55.683Z,22.02
2018-08-19T08:42:55.745Z,22.11
2018-08-19T08:43:55.808Z,22.21
2018-08-19T08:44:55.870Z,22.26
2018-08-19T08:45:55.933Z,22.35
2018-08-19T08:46:56.003Z,22.44
2018-08-19T08:47:56.096Z,22.41
2018-08-19T08:48:56.120Z,22.48
2018-08-19T08:49:56.183Z,22.49
2018-08-19T08:50:56.249Z,22.54
2018-08-19T08:51:56.308Z,22.67
2018-08-19T08:52:56.371Z,22.81
2018-08-19T08:53:56.434Z,22.82
2018-08-19T08:54:56.497Z,23.00
2018-08-19T08:55:56.560Z,22.96
2018-08-19T08:56:56.622Z,23.12
2018-08-19T08:57:56.685Z,23.22
2018-08-19T08:58:56.748Z,23.29
2018-08-19T08:59:56.811Z,23.32
2018-08-19T09:00:56.873Z,23.47
2018-08-19T09:01:56.938Z,23.67
2018-08-19T09:02:57.001Z,23.79
2018-08-19T09:03:57.062Z,23.93
2018-08-19T09:04:57.126Z,24.09
2018-08-19T09:05:57.191Z,24.09
2018-08-19T09:06:57.253Z,24.19
2018-08-19T09:07:57.315Z,24.11
2018-08-19T09:08:57.379Z,24.18
2018-08-19T09:09:57.442Z,24.29
2018-08-19T09:10:57.508Z,24.27
2018-08-19T09:11:57.569Z,24.52
2018-08-19T09:12:57.634Z,24.60
2018-08-19T09:13:57.765Z,24.66
2018-08-19T09:14:57.759Z,24.59
2018-08-19T09:15:57.823Z,24.68
2018-08-19T09:16:57.888Z,24.77
2018-08-19T09:17:57.950Z,24.82
2018-08-19T09:18:58.014Z,24.87
2018-08-19T09:19:58.095Z,24.89
2018-08-19T09:20:58.141Z,24.45
2018-08-19T09:21:58.727Z,24.49
2018-08-19T09:22:58.285Z,24.74
2018-08-19T09:23:58.332Z,24.71
2018-08-19T09:24:58.395Z,24.83
2018-08-19T09:25:58.459Z,24.89
2018-08-19T09:26:58.524Z,24.80
2018-08-19T09:27:58.596Z,24.94
2018-08-19T09:28:58.650Z,25.08
2018-08-19T09:29:58.741Z,25.08
2018-08-19T09:30:58.777Z,25.23
2018-08-19T09:31:58.840Z,25.29
2018-08-19T09:32:59.023Z,25.27
2018-08-19T09:33:58.969Z,25.14
2018-08-19T09:34:59.114Z,25.17
2018-08-19T09:35:59.104Z,25.11
2018-08-19T09:36:59.160Z,25.34
2018-08-19T09:37:59.225Z,25.34
2018-08-19T09:38:59.411Z,25.56
2018-08-19T09:39:59.418Z,25.56
2018-08-19T09:41:59.479Z,25.94
2018-08-19T09:42:59.585Z,25.94
2018-08-19T09:43:59.609Z,25.82
2018-08-19T09:46:02.427Z,25.83
2018-08-19T09:47:02.237Z,25.69
2018-08-19T09:48:02.521Z,25.61
2018-08-19T09:49:02.366Z,25.51
2018-08-19T09:50:02.431Z,25.63
2018-08-19T09:51:02.505Z,25.83
2018-08-19T09:52:02.556Z,25.98
2018-08-19T09:53:02.666Z,25.98
2018-08-19T09:54:02.737Z,25.89
2018-08-19T09:55:02.749Z,25.98
2018-08-19T09:56:02.816Z,26.01
2018-08-19T09:57:02.877Z,25.96
2018-08-19T09:58:02.943Z,25.79
2018-08-19T09:59:03.008Z,25.91
2018-08-19T10:00:03.079Z,26.01
2018-08-19T10:01:03.135Z,26.12
2018-08-19T10:02:03.202Z,25.82
2018-08-19T10:03:03.264Z,25.78
2018-08-19T10:04:03.328Z,25.93
2018-08-19T10:05:03.393Z,25.98
2018-08-19T10:06:03.837Z,26.06
2018-08-19T10:07:03.521Z,26.13
2018-08-19T10:08:03.586Z,26.12
2018-08-19T10:09:03.651Z,26.16
2018-08-19T10:10:03.715Z,26.35
2018-08-19T10:11:03.779Z,26.28
2018-08-19T10:12:03.845Z,26.36
2018-08-19T10:13:03.908Z,26.44
2018-08-19T10:14:03.973Z,26.61
2018-08-19T10:15:04.039Z,26.59
2018-08-19T10:16:04.102Z,26.54
2018-08-19T10:17:04.166Z,26.69
2018-08-19T10:18:04.231Z,26.75
2018-08-19T10:19:04.295Z,26.83
2018-08-19T10:20:04.360Z,26.76
2018-08-19T10:21:04.428Z,26.83
2018-08-19T10:22:04.489Z,26.78
2018-08-19T10:23:04.553Z,26.97
2018-08-19T10:24:04.617Z,26.81
2018-08-19T10:25:04.684Z,26.76
2018-08-19T10:26:04.764Z,26.78
2018-08-19T10:27:04.934Z,26.88
2018-08-19T10:28:04.878Z,26.93
2018-08-19T10:29:04.943Z,27.05
2018-08-19T10:30:05.008Z,27.16
2018-08-19T10:31:05.073Z,27.24
2018-08-19T10:32:09.571Z,27.39
2018-08-19T10:33:05.210Z,27.58
2018-08-19T10:34:05.280Z,27.77
2018-08-19T10:35:05.661Z,27.84
2018-08-19T10:36:05.473Z,27.86
2018-08-19T10:37:05.482Z,27.77
2018-08-19T10:38:05.537Z,27.74
2018-08-19T10:39:05.659Z,27.42
2018-08-19T10:40:05.670Z,27.39
2018-08-19T10:41:05.740Z,27.74
2018-08-19T10:42:05.808Z,28.09
2018-08-19T10:43:05.876Z,28.57
2018-08-19T10:44:05.944Z,28.72
2018-08-19T10:45:06.012Z,29.08
2018-08-19T10:46:06.083Z,29.41
2018-08-19T10:47:06.149Z,29.60
2018-08-19T10:48:06.219Z,29.60
2018-08-19T10:49:06.289Z,29.58
2018-08-19T10:50:06.358Z,29.73
2018-08-19T10:51:06.427Z,30.06
2018-08-19T10:52:06.497Z,30.16
2018-08-19T10:53:06.574Z,30.11
2018-08-19T10:54:06.639Z,30.23
2018-08-19T10:55:06.708Z,29.91
2018-08-19T10:56:06.778Z,30.01
2018-08-19T10:57:06.905Z,30.18
2018-08-19T10:58:06.919Z,30.15
2018-08-19T10:59:06.989Z,30.70
2018-08-19T11:00:07.061Z,30.68
2018-08-19T11:01:07.132Z,31.22
2018-08-19T11:02:07.203Z,31.40
2018-08-19T11:03:07.275Z,31.15
2018-08-19T11:04:07.346Z,30.38
2018-08-19T11:05:07.417Z,30.37
2018-08-19T11:06:07.489Z,29.74
2018-08-19T11:07:07.560Z,30.06
2018-08-19T11:08:07.631Z,29.84
2018-08-19T11:09:07.703Z,29.99
2018-08-19T11:10:07.775Z,30.25
2018-08-19T11:11:07.846Z,30.51
2018-08-19T11:12:07.921Z,30.64
2018-08-19T11:13:07.993Z,30.83
2018-08-19T11:14:08.061Z,30.91
2018-08-19T11:15:08.133Z,30.59
2018-08-19T11:16:08.204Z,30.98
2018-08-19T11:17:08.277Z,30.49
2018-08-19T11:18:08.349Z,30.19
2018-08-19T11:19:08.423Z,30.18
2018-08-19T11:20:08.492Z,30.16
2018-08-19T11:21:08.675Z,30.23
2018-08-19T11:22:08.636Z,30.73
2018-08-19T11:23:08.708Z,31.09
2018-08-19T11:24:08.781Z,31.49
2018-08-19T11:25:08.853Z,31.88
2018-08-19T11:26:08.924Z,31.71
2018-08-19T11:27:08.996Z,31.18
2018-08-19T11:28:09.067Z,30.59
2018-08-19T11:29:09.140Z,30.59
2018-08-19T11:30:09.212Z,30.60
2018-08-19T11:31:09.284Z,30.82
2018-08-19T11:32:09.362Z,31.19
2018-08-19T11:33:09.428Z,31.15
2018-08-19T11:34:09.652Z,31.05
2018-08-19T11:35:09.573Z,31.31
2018-08-19T11:36:09.643Z,31.30
2018-08-19T11:37:09.719Z,31.12
2018-08-19T11:38:09.789Z,31.07
2018-08-19T11:39:09.860Z,30.97
2018-08-19T11:40:09.932Z,30.94
2018-08-19T11:41:10.005Z,31.12
2018-08-19T11:42:10.076Z,31.30
2018-08-19T11:43:10.148Z,31.15
2018-08-19T11:44:10.219Z,30.83
2018-08-19T11:45:10.293Z,31.07
2018-08-19T11:46:10.364Z,30.76
2018-08-19T11:47:10.435Z,30.97
2018-08-19T11:48:10.507Z,31.15
2018-08-19T11:49:10.579Z,31.31
2018-08-19T11:50:10.652Z,31.71
2018-08-19T11:51:10.727Z,32.06
2018-08-19T11:52:10.795Z,31.28
2018-08-19T11:53:10.868Z,31.28
2018-08-19T11:54:10.949Z,31.28
2018-08-19T11:55:11.012Z,31.54
2018-08-19T11:56:11.083Z,31.30
2018-08-19T11:57:11.155Z,31.22
2018-08-19T11:58:11.228Z,31.57
2018-08-19T11:59:11.299Z,31.35
2018-08-19T12:00:11.370Z,31.37
2018-08-19T12:01:11.443Z,31.01
2018-08-19T12:02:11.544Z,30.94
2018-08-19T12:03:11.585Z,30.93
2018-08-19T12:04:11.658Z,30.88
2018-08-19T12:05:11.731Z,31.00
2018-08-19T12:06:11.803Z,30.61
2018-08-19T12:07:11.873Z,30.97
2018-08-19T12:08:11.945Z,31.31
2018-08-19T12:09:12.020Z,31.68
2018-08-19T12:10:12.093Z,31.87
2018-08-19T12:11:12.161Z,31.57
2018-08-19T12:12:12.233Z,31.37
2018-08-19T12:13:12.305Z,31.64
2018-08-19T12:14:12.380Z,31.50
2018-08-19T12:15:12.448Z,31.62
2018-08-19T12:16:12.520Z,31.59
2018-08-19T12:17:12.592Z,31.37
2018-08-19T12:18:12.668Z,31.41
2018-08-19T12:19:12.735Z,30.93
2018-08-19T12:20:12.809Z,31.23
2018-08-19T12:21:12.883Z,31.75
2018-08-19T12:22:12.954Z,32.10
2018-08-19T12:23:13.022Z,31.74
2018-08-19T12:24:13.095Z,32.03
2018-08-19T12:25:13.169Z,32.10
2018-08-19T12:26:13.239Z,32.71
2018-08-19T12:27:13.312Z,32.47
2018-08-19T12:28:13.382Z,32.32
2018-08-19T12:29:13.454Z,32.41
2018-08-19T12:30:13.525Z,32.27
2018-08-19T12:31:13.598Z,31.91
2018-08-19T12:32:13.669Z,31.50
2018-08-19T12:33:13.742Z,31.42
2018-08-19T12:34:14.066Z,31.87
2018-08-19T12:35:13.892Z,32.40
2018-08-19T12:36:13.957Z,32.66
2018-08-19T12:37:14.111Z,32.80
2018-08-19T12:38:14.106Z,32.96
2018-08-19T12:39:14.174Z,32.50
2018-08-19T12:40:14.247Z,31.37
2018-08-19T12:41:14.318Z,31.04
2018-08-19T12:42:14.393Z,31.27
2018-08-19T12:43:14.994Z,31.27
2018-08-19T12:44:14.535Z,32.02
2018-08-19T12:45:14.607Z,32.10
2018-08-19T12:46:14.682Z,32.36
2018-08-19T12:47:15.247Z,32.06
2018-08-19T12:48:14.823Z,32.12
2018-08-19T12:49:14.900Z,32.29
2018-08-19T12:50:15.425Z,32.39
2018-08-19T12:51:15.477Z,31.82
2018-08-19T12:52:15.113Z,31.84
2018-08-19T12:53:15.185Z,32.40
2018-08-19T12:54:15.257Z,32.68
2018-08-19T12:55:15.579Z,33.33
2018-08-19T12:56:15.402Z,33.78